createdAt,value
2022-10-05T00:00:21.830Z,24.10
2022-10-05T00:02:52.350Z,24.10
2022-10-05T00:05:27.395Z,24.10
2022-10-05T00:07:55.725Z,24.10
2022-10-05T00:10:24.108Z,24.10
2022-10-05T00:12:52.024Z,24.10
2022-10-05T00:15:20.297Z,24.10
2022-10-05T00:17:48.429Z,24.10
2022-10-05T00:20:21.389Z,24.10
2022-10-05T00:22:49.225Z,24.10
2022-10-05T00:25:18.511Z,24.10
2022-10-05T00:27:47.624Z,24.00
2022-10-05T00:30:17.844Z,24.00
2022-10-05T00:32:45.930Z,24.00
2022-10-05T00:35:14.597Z,24.00
2022-10-05T00:37:44.189Z,24.00
2022-10-05T00:40:25.228Z,24.00
2022-10-05T00:42:56.388Z,24.00
2022-10-05T00:45:27.744Z,24.00
2022-10-05T00:47:58.781Z,24.00
2022-10-05T00:50:38.570Z,24.00
2022-10-05T00:53:12.975Z,24.00
2022-10-05T00:55:47.404Z,23.90
2022-10-05T00:58:18.612Z,23.90
2022-10-05T01:00:50.614Z,23.90
2022-10-05T01:03:20.681Z,23.90
2022-10-05T01:05:56.207Z,23.90
2022-10-05T01:08:30.136Z,23.90
2022-10-05T01:11:03.663Z,23.90
2022-10-05T01:13:33.913Z,23.90
2022-10-05T01:16:06.729Z,23.90
2022-10-05T01:18:39.037Z,23.90
2022-10-05T01:21:10.045Z,23.90
2022-10-05T01:24:15.927Z,23.90
2022-10-05T01:26:52.418Z,23.90
2022-10-05T01:29:23.773Z,23.90
2022-10-05T01:31:54.355Z,23.80
2022-10-05T01:34:25.217Z,23.80
2022-10-05T01:36:56.099Z,23.80
2022-10-05T01:39:26.074Z,23.80
2022-10-05T01:41:57.354Z,23.80
2022-10-05T01:44:29.589Z,23.80
2022-10-05T01:47:00.265Z,23.80
2022-10-05T01:49:38.157Z,23.80
2022-10-05T01:52:14.020Z,23.80
2022-10-05T01:54:46.173Z,23.70
2022-10-05T01:57:18.413Z,23.70
2022-10-05T01:59:55.928Z,23.70
2022-10-05T02:02:24.591Z,23.70
2022-10-05T02:05:01.900Z,23.70
2022-10-05T02:07:30.940Z,23.70
2022-10-05T02:10:00.851Z,23.70
2022-10-05T02:12:30.428Z,23.70
2022-10-05T02:15:02.517Z,23.70
2022-10-05T02:17:33.614Z,23.60
2022-10-05T02:20:03.120Z,23.70
2022-10-05T02:22:31.860Z,23.60
2022-10-05T02:25:01.992Z,23.60
2022-10-05T02:27:31.074Z,23.60
2022-10-05T02:30:02.945Z,23.60
2022-10-05T02:32:34.034Z,23.60
2022-10-05T02:35:03.460Z,23.50
2022-10-05T02:37:35.346Z,23.50
2022-10-05T02:40:10.843Z,23.50
2022-10-05T02:42:43.181Z,23.50
2022-10-05T02:45:16.581Z,23.50
2022-10-05T02:47:47.253Z,23.50
2022-10-05T02:50:18.357Z,23.50
2022-10-05T02:52:49.022Z,23.50
2022-10-05T02:55:19.501Z,23.50
2022-10-05T02:57:50.073Z,23.50
2022-10-05T03:00:20.567Z,23.50
2022-10-05T03:02:52.971Z,23.40
2022-10-05T03:05:23.626Z,23.40
2022-10-05T03:07:55.777Z,23.40
2022-10-05T03:10:28.862Z,23.40
2022-10-05T03:13:01.581Z,23.40
2022-10-05T03:15:46.646Z,23.40
2022-10-05T03:18:16.981Z,23.30
2022-10-05T03:20:48.755Z,23.30
2022-10-05T03:23:20.259Z,23.30
2022-10-05T03:26:13.073Z,23.30
2022-10-05T03:28:44.841Z,23.40
2022-10-05T03:31:16.308Z,23.30
2022-10-05T03:33:46.842Z,23.30
2022-10-05T03:36:18.914Z,23.30
2022-10-05T03:38:50.164Z,23.30
2022-10-05T03:41:21.617Z,23.30
2022-10-05T03:44:02.938Z,23.30
2022-10-05T03:46:45.829Z,23.30
2022-10-05T03:49:16.886Z,23.30
2022-10-05T03:51:46.899Z,23.30
2022-10-05T03:54:17.609Z,23.30
2022-10-05T03:56:47.908Z,23.30
2022-10-05T03:59:18.021Z,23.20
2022-10-05T04:01:50.947Z,23.20
2022-10-05T04:04:20.975Z,23.20
2022-10-05T04:06:49.349Z,23.20
2022-10-05T04:09:19.591Z,23.20
2022-10-05T04:11:50.957Z,23.20
2022-10-05T04:14:21.198Z,23.10
2022-10-05T04:16:52.681Z,23.10
2022-10-05T04:19:22.393Z,23.10
2022-10-05T04:21:52.244Z,23.10
2022-10-05T04:24:21.861Z,23.10
2022-10-05T04:26:51.316Z,23.10
2022-10-05T04:29:28.443Z,23.10
2022-10-05T04:32:05.830Z,23.10
2022-10-05T04:34:45.586Z,23.10
2022-10-05T04:37:15.623Z,23.00
2022-10-05T04:39:47.031Z,23.00
2022-10-05T04:42:17.589Z,23.00
2022-10-05T04:44:58.974Z,23.00
2022-10-05T04:47:37.219Z,23.00
2022-10-05T04:50:18.058Z,23.00
2022-10-05T04:52:50.238Z,23.00
2022-10-05T04:55:23.302Z,23.00
2022-10-05T04:57:51.551Z,23.00
2022-10-05T05:00:24.145Z,22.90
2022-10-05T05:03:17.955Z,23.00
2022-10-05T05:06:15.514Z,22.90
2022-10-05T05:08:47.374Z,22.90
2022-10-05T05:11:24.691Z,22.90
2022-10-05T05:14:12.409Z,22.90
2022-10-05T05:16:41.238Z,22.80
2022-10-05T05:19:25.589Z,22.80
2022-10-05T05:21:58.701Z,22.90
2022-10-05T05:24:33.024Z,22.80
2022-10-05T05:27:12.453Z,22.80
2022-10-05T05:29:45.917Z,22.80
2022-10-05T05:32:18.985Z,22.80
2022-10-05T05:34:55.949Z,22.80
2022-10-05T05:37:26.195Z,22.80
2022-10-05T05:39:56.596Z,22.80
2022-10-05T05:42:30.375Z,22.70
2022-10-05T05:44:58.837Z,22.70
2022-10-05T05:47:29.144Z,22.70
2022-10-05T05:50:11.736Z,22.70
2022-10-05T05:52:42.126Z,22.70
2022-10-05T05:55:13.669Z,22.70
2022-10-05T05:57:43.928Z,22.70
2022-10-05T06:00:19.806Z,22.70
2022-10-05T06:02:50.038Z,22.70
2022-10-05T06:05:33.901Z,22.70
2022-10-05T06:08:03.944Z,22.70
2022-10-05T06:10:34.820Z,22.70
2022-10-05T06:13:06.469Z,22.70
2022-10-05T06:15:35.996Z,22.70
2022-10-05T06:18:05.384Z,22.70
2022-10-05T06:20:37.923Z,22.70
2022-10-05T06:23:06.822Z,22.70
2022-10-05T06:25:37.424Z,22.70
2022-10-05T06:28:09.801Z,22.70
2022-10-05T06:30:45.941Z,22.70
2022-10-05T06:33:20.954Z,22.70
2022-10-05T06:35:57.528Z,22.70
2022-10-05T06:38:46.810Z,22.70
2022-10-05T06:41:17.891Z,22.70
2022-10-05T06:43:49.838Z,22.70
2022-10-05T06:46:21.350Z,22.70
2022-10-05T06:48:58.898Z,22.70
2022-10-05T06:51:31.099Z,22.70
2022-10-05T06:54:04.685Z,22.70
2022-10-05T06:56:34.311Z,22.70
2022-10-05T06:59:05.364Z,22.70
2022-10-05T07:01:39.663Z,22.70
2022-10-05T07:04:16.734Z,22.70
2022-10-05T07:06:47.224Z,22.70
2022-10-05T07:09:26.437Z,22.70
2022-10-05T07:12:04.822Z,22.70
2022-10-05T07:14:40.957Z,22.70
2022-10-05T07:17:27.279Z,22.70
2022-10-05T07:19:58.656Z,22.70
2022-10-05T07:22:48.501Z,22.70
2022-10-05T07:25:18.135Z,22.70
2022-10-05T07:27:51.697Z,22.70
2022-10-05T07:30:19.661Z,22.80
2022-10-05T07:32:52.699Z,22.80
2022-10-05T07:35:43.931Z,22.80
2022-10-05T07:38:14.026Z,22.90
2022-10-05T07:40:44.081Z,22.90
2022-10-05T07:43:23.231Z,22.90
2022-10-05T07:45:53.671Z,23.00
2022-10-05T07:48:22.486Z,23.00
2022-10-05T07:51:00.919Z,23.00
2022-10-05T07:53:32.545Z,23.10
2022-10-05T07:56:03.202Z,23.10
2022-10-05T07:58:32.889Z,23.10
2022-10-05T08:01:09.535Z,23.10
2022-10-05T08:03:44.463Z,23.20
2022-10-05T08:06:13.585Z,23.20
2022-10-05T08:08:46.060Z,23.10
2022-10-05T08:11:15.576Z,23.10
2022-10-05T08:13:45.951Z,23.20
2022-10-05T08:16:14.557Z,23.20
2022-10-05T08:18:49.337Z,23.20
2022-10-05T08:21:18.173Z,23.30
2022-10-05T08:23:48.653Z,23.30
2022-10-05T08:26:19.379Z,23.30
2022-10-05T08:28:51.006Z,23.30
2022-10-05T08:31:21.253Z,23.30
2022-10-05T08:33:55.568Z,23.30
2022-10-05T08:36:28.937Z,23.30
2022-10-05T08:38:59.270Z,23.30
2022-10-05T08:41:48.419Z,23.30
2022-10-05T08:44:51.232Z,23.40
2022-10-05T08:47:41.975Z,23.40
2022-10-05T08:50:20.902Z,23.40
2022-10-05T08:53:03.325Z,23.40
2022-10-05T08:55:37.806Z,23.40
2022-10-05T08:58:50.456Z,23.40
2022-10-05T09:01:21.858Z,23.40
2022-10-05T09:04:07.082Z,23.40
2022-10-05T09:06:56.260Z,23.50
2022-10-05T09:09:35.589Z,23.50
2022-10-05T09:12:19.865Z,23.50
2022-10-05T09:15:07.163Z,23.50
2022-10-05T09:18:07.210Z,23.50
2022-10-05T09:20:38.727Z,23.60
2022-10-05T09:23:14.092Z,23.60
2022-10-05T09:25:57.253Z,23.70
2022-10-05T09:28:31.217Z,23.70
2022-10-05T09:31:16.264Z,23.80
2022-10-05T09:34:16.053Z,23.90
2022-10-05T09:37:09.236Z,23.90
2022-10-05T09:39:45.838Z,23.90
2022-10-05T09:42:41.568Z,24.00
2022-10-05T09:45:44.272Z,24.10
2022-10-05T09:48:41.325Z,24.10
2022-10-05T09:51:41.754Z,24.10
2022-10-05T09:54:57.195Z,24.30
2022-10-05T09:57:53.352Z,24.30
2022-10-05T10:00:25.998Z,24.40
2022-10-05T10:03:18.538Z,24.40
2022-10-05T10:06:10.625Z,24.50
2022-10-05T10:08:44.970Z,24.50
2022-10-05T10:11:24.931Z,24.60
2022-10-05T10:14:11.379Z,24.60
2022-10-05T10:16:49.746Z,24.60
2022-10-05T10:19:45.798Z,24.70
2022-10-05T10:22:57.378Z,24.70
2022-10-05T10:25:34.709Z,24.80
2022-10-05T10:28:20.341Z,24.80
2022-10-05T10:30:59.316Z,24.80
2022-10-05T10:33:54.871Z,24.80
2022-10-05T10:36:23.984Z,24.90
2022-10-05T10:39:02.462Z,24.90
2022-10-05T10:41:55.712Z,24.90
2022-10-05T10:44:51.452Z,24.90
2022-10-05T10:47:48.382Z,24.90
2022-10-05T10:50:43.632Z,24.90
2022-10-05T10:53:23.587Z,24.90
2022-10-05T10:55:56.157Z,25.00
2022-10-05T10:58:45.594Z,25.00
2022-10-05T11:01:24.612Z,25.00
2022-10-05T11:04:28.625Z,25.10
2022-10-05T11:07:12.313Z,25.00
2022-10-05T11:10:00.267Z,25.10
2022-10-05T11:12:49.888Z,25.10
2022-10-05T11:15:53.367Z,25.10
2022-10-05T11:18:22.689Z,25.10
2022-10-05T11:21:31.819Z,25.20
2022-10-05T11:24:39.212Z,25.20
2022-10-05T11:27:26.257Z,25.20
2022-10-05T11:30:22.993Z,25.30
2022-10-05T11:33:14.544Z,25.40
2022-10-05T11:36:21.474Z,25.50
2022-10-05T11:39:04.477Z,25.50
2022-10-05T11:41:56.105Z,25.60
2022-10-05T11:44:43.398Z,25.60
2022-10-05T11:47:13.696Z,25.70
2022-10-05T11:49:42.461Z,26.10
2022-10-05T11:52:12.778Z,26.40
2022-10-05T11:55:11.116Z,26.50
2022-10-05T11:57:44.156Z,26.80
2022-10-05T12:00:15.042Z,27.00
2022-10-05T12:03:10.299Z,27.00
2022-10-05T12:05:42.200Z,27.10
2022-10-05T12:08:21.279Z,27.00
2022-10-05T12:10:52.870Z,27.00
2022-10-05T12:13:27.217Z,27.10
2022-10-05T12:15:56.846Z,27.10
2022-10-05T12:18:39.419Z,27.30
2022-10-05T12:21:10.561Z,27.50
2022-10-05T12:23:40.771Z,28.00
2022-10-05T12:26:11.000Z,28.90
2022-10-05T12:28:43.076Z,29.60
2022-10-05T12:31:24.093Z,30.60
2022-10-05T12:33:55.833Z,31.90
2022-10-05T12:36:35.951Z,31.60
2022-10-05T12:39:17.049Z,32.20
2022-10-05T12:41:47.539Z,32.50
2022-10-05T12:44:20.001Z,32.50
2022-10-05T12:46:52.748Z,32.20
2022-10-05T12:49:32.865Z,32.10
2022-10-05T12:52:01.225Z,31.90
2022-10-05T12:54:36.279Z,31.30
2022-10-05T12:57:07.024Z,30.70
2022-10-05T12:59:41.549Z,30.50
2022-10-05T13:02:16.675Z,30.20
2022-10-05T13:04:48.554Z,29.80
2022-10-05T13:07:29.667Z,29.50
2022-10-05T13:10:00.946Z,29.20
2022-10-05T13:12:35.987Z,28.90
2022-10-05T13:15:08.201Z,28.70
2022-10-05T13:17:38.993Z,28.50
2022-10-05T13:20:12.183Z,28.40
2022-10-05T13:22:41.454Z,28.30
2022-10-05T13:25:19.403Z,28.20
2022-10-05T13:27:49.954Z,28.00
2022-10-05T13:30:19.809Z,27.90
2022-10-05T13:32:48.246Z,27.80
2022-10-05T13:35:27.000Z,27.70
2022-10-05T13:38:01.638Z,27.60
2022-10-05T13:40:32.902Z,27.50
2022-10-05T13:43:03.948Z,27.40
2022-10-05T13:45:37.555Z,27.30
2022-10-05T13:48:12.154Z,27.20
2022-10-05T13:50:43.516Z,27.20
2022-10-05T13:53:15.484Z,27.10
2022-10-05T13:55:46.609Z,27.00
2022-10-05T13:58:20.108Z,27.00
2022-10-05T14:00:51.101Z,26.90
2022-10-05T14:03:27.467Z,26.90
2022-10-05T14:05:57.410Z,26.90
2022-10-05T14:08:28.362Z,26.90
2022-10-05T14:10:56.969Z,26.80
2022-10-05T14:13:27.247Z,26.80
2022-10-05T14:16:07.359Z,26.70
2022-10-05T14:18:37.500Z,26.70
2022-10-05T14:21:18.019Z,26.70
2022-10-05T14:23:45.920Z,26.70
2022-10-05T14:26:22.136Z,26.70
2022-10-05T14:28:58.638Z,26.80
2022-10-05T14:31:32.744Z,26.80
2022-10-05T14:34:23.301Z,26.90
2022-10-05T14:36:53.408Z,27.00
2022-10-05T14:39:21.135Z,27.00
2022-10-05T14:41:50.280Z,27.00
2022-10-05T14:44:27.663Z,27.10
2022-10-05T14:46:58.765Z,27.00
2022-10-05T14:49:27.800Z,27.10
2022-10-05T14:51:56.586Z,27.10
2022-10-05T14:54:30.903Z,27.00
2022-10-05T14:57:12.530Z,27.00
2022-10-05T15:00:04.919Z,27.00
2022-10-05T15:02:45.520Z,27.00
2022-10-05T15:05:16.410Z,27.00
2022-10-05T15:07:45.873Z,26.90
2022-10-05T15:10:29.622Z,26.90
2022-10-05T15:13:00.041Z,26.90
2022-10-05T15:15:32.827Z,26.80
2022-10-05T15:18:03.698Z,26.70
2022-10-05T15:20:35.115Z,26.70
2022-10-05T15:23:11.277Z,26.70
2022-10-05T15:25:43.086Z,26.70
2022-10-05T15:28:13.811Z,26.60
2022-10-05T15:30:42.696Z,26.70
2022-10-05T15:33:18.425Z,26.60
2022-10-05T15:36:05.300Z,26.60
2022-10-05T15:38:36.921Z,26.60
2022-10-05T15:41:10.845Z,26.50
2022-10-05T15:43:52.675Z,26.40
2022-10-05T15:46:23.482Z,26.40
2022-10-05T15:49:08.714Z,26.40
2022-10-05T15:51:45.360Z,26.30
2022-10-05T15:54:44.097Z,26.30
2022-10-05T15:57:20.636Z,26.20
2022-10-05T15:59:57.839Z,26.20
2022-10-05T16:02:29.779Z,26.10
2022-10-05T16:05:04.943Z,26.10
2022-10-05T16:07:54.427Z,26.10
2022-10-05T16:10:23.780Z,26.00
2022-10-05T16:13:04.406Z,26.00
2022-10-05T16:15:34.536Z,25.90
2022-10-05T16:18:32.421Z,25.90
2022-10-05T16:21:07.055Z,25.90
2022-10-05T16:23:39.003Z,25.80
2022-10-05T16:26:14.619Z,25.80
2022-10-05T16:28:49.951Z,25.80
2022-10-05T16:31:20.321Z,25.70
2022-10-05T16:33:56.370Z,25.70
2022-10-05T16:36:32.424Z,25.70
2022-10-05T16:39:04.064Z,25.70
2022-10-05T16:41:35.161Z,25.60
2022-10-05T16:44:07.904Z,25.60
2022-10-05T16:46:38.092Z,25.60
2022-10-05T16:49:10.913Z,25.60
2022-10-05T16:51:44.815Z,25.60
2022-10-05T16:54:18.315Z,25.50
2022-10-05T16:56:48.603Z,25.50
2022-10-05T16:59:42.720Z,25.70
2022-10-05T17:02:15.602Z,25.60
2022-10-05T17:04:46.032Z,25.60
2022-10-05T17:07:57.282Z,25.50
2022-10-05T17:10:41.110Z,25.50
2022-10-05T17:13:21.054Z,25.40
2022-10-05T17:16:00.693Z,25.40
2022-10-05T17:18:49.676Z,25.40
2022-10-05T17:21:19.049Z,25.40
2022-10-05T17:23:54.593Z,25.40
2022-10-05T17:26:54.919Z,25.40
2022-10-05T17:29:42.656Z,25.40
2022-10-05T17:32:12.249Z,25.30
2022-10-05T17:34:40.441Z,25.30
2022-10-05T17:37:19.232Z,25.30
2022-10-05T17:39:49.121Z,25.30
2022-10-05T17:42:52.379Z,25.20
2022-10-05T17:45:52.721Z,25.30
2022-10-05T17:48:43.656Z,25.20
2022-10-05T17:52:09.407Z,25.20
2022-10-05T17:55:19.462Z,25.20
2022-10-05T17:57:47.204Z,25.20
2022-10-05T18:00:44.557Z,25.10
2022-10-05T18:03:37.715Z,25.20
2022-10-05T18:06:31.800Z,25.20
2022-10-05T18:09:20.854Z,25.10
2022-10-05T18:12:04.112Z,25.10
2022-10-05T18:14:51.439Z,25.10
2022-10-05T18:17:36.712Z,25.10
2022-10-05T18:20:33.670Z,25.20
2022-10-05T18:23:35.390Z,25.20
2022-10-05T18:26:07.835Z,25.20
2022-10-05T18:28:41.478Z,25.10
2022-10-05T18:31:16.594Z,25.10
2022-10-05T18:33:53.531Z,25.10
2022-10-05T18:36:28.828Z,25.10
2022-10-05T18:39:00.405Z,25.10
2022-10-05T18:41:37.720Z,25.10
2022-10-05T18:44:17.793Z,25.10
2022-10-05T18:46:47.904Z,25.10
2022-10-05T18:49:30.452Z,25.10
2022-10-05T18:52:01.761Z,25.10
2022-10-05T18:54:38.122Z,25.10
2022-10-05T18:57:25.738Z,25.10
2022-10-05T18:59:55.571Z,25.10
2022-10-05T19:02:24.548Z,25.10
2022-10-05T19:05:02.436Z,25.00
2022-10-05T19:07:38.700Z,25.10
2022-10-05T19:10:11.985Z,25.10
2022-10-05T19:12:47.123Z,25.00
2022-10-05T19:15:19.272Z,25.00
2022-10-05T19:17:54.426Z,25.00
2022-10-05T19:20:23.489Z,25.00
2022-10-05T19:23:03.885Z,25.00
2022-10-05T19:25:37.905Z,25.00
2022-10-05T19:28:12.166Z,25.00
2022-10-05T19:30:49.411Z,25.00
2022-10-05T19:33:27.183Z,25.00
2022-10-05T19:36:01.444Z,25.00
2022-10-05T19:38:33.722Z,23.50
2022-10-05T19:41:05.119Z,22.50
2022-10-05T19:43:40.547Z,23.10
2022-10-05T19:46:17.683Z,23.60
2022-10-05T19:48:48.533Z,24.00
2022-10-05T19:51:18.712Z,24.20
2022-10-05T19:53:50.267Z,24.40
2022-10-05T19:56:20.547Z,24.50
2022-10-05T19:58:48.885Z,24.50
2022-10-05T20:01:25.004Z,24.60
2022-10-05T20:03:53.400Z,24.60
2022-10-05T20:06:22.666Z,24.70
2022-10-05T20:08:52.878Z,24.70
2022-10-05T20:11:21.225Z,24.70
2022-10-05T20:14:20.105Z,24.70
2022-10-05T20:17:05.645Z,24.80
2022-10-05T20:19:51.579Z,24.70
2022-10-05T20:22:32.790Z,24.80
2022-10-05T20:25:01.990Z,24.80
2022-10-05T20:27:55.396Z,24.70
2022-10-05T20:30:25.286Z,24.80
2022-10-05T20:32:57.548Z,24.70
2022-10-05T20:35:27.682Z,24.70
2022-10-05T20:38:00.300Z,24.70
2022-10-05T20:40:29.348Z,24.80
2022-10-05T20:42:57.300Z,24.70
2022-10-05T20:45:26.643Z,24.70
2022-10-05T20:47:55.453Z,24.70
2022-10-05T20:50:23.417Z,24.70
2022-10-05T20:52:51.422Z,24.70
2022-10-05T20:55:20.769Z,24.70
2022-10-05T20:57:49.010Z,24.70
2022-10-05T21:00:17.124Z,24.70
2022-10-05T21:02:46.885Z,24.70
2022-10-05T21:05:14.851Z,24.70
2022-10-05T21:07:43.041Z,24.70
2022-10-05T21:10:14.809Z,24.70
2022-10-05T21:12:42.768Z,24.70
2022-10-05T21:15:10.947Z,24.70
2022-10-05T21:17:39.949Z,24.70
2022-10-05T21:20:11.163Z,24.60
2022-10-05T21:22:38.902Z,24.60
2022-10-05T21:25:09.329Z,24.60
2022-10-05T21:27:37.063Z,24.60
2022-10-05T21:30:05.411Z,24.60
2022-10-05T21:32:33.367Z,24.60
2022-10-05T21:35:01.414Z,24.60
2022-10-05T21:37:30.680Z,24.60
2022-10-05T21:39:58.581Z,24.60
2022-10-05T21:42:26.498Z,24.50
2022-10-05T21:44:54.472Z,24.50
2022-10-05T21:47:22.453Z,24.50
2022-10-05T21:49:50.401Z,24.50
2022-10-05T21:52:18.319Z,24.50
2022-10-05T21:54:47.908Z,24.40
2022-10-05T21:57:16.183Z,24.30
2022-10-05T21:59:44.124Z,24.30
2022-10-05T22:02:12.101Z,24.30
2022-10-05T22:04:40.050Z,24.20
2022-10-05T22:07:14.579Z,24.10
2022-10-05T22:09:42.331Z,24.10
2022-10-05T22:12:11.828Z,24.10
2022-10-05T22:14:39.540Z,24.00
2022-10-05T22:17:07.767Z,24.10
2022-10-05T22:19:35.739Z,24.00
2022-10-05T22:22:03.475Z,24.00
2022-10-05T22:24:31.472Z,24.00
2022-10-05T22:26:59.416Z,24.00
2022-10-05T22:29:29.473Z,24.00
2022-10-05T22:31:57.553Z,24.00
2022-10-05T22:34:25.544Z,23.90
2022-10-05T22:36:53.570Z,23.90
2022-10-05T22:39:21.538Z,23.90
2022-10-05T22:41:50.576Z,23.90
2022-10-05T22:44:18.621Z,23.90
2022-10-05T22:46:48.138Z,23.90
2022-10-05T22:49:16.081Z,23.90
2022-10-05T22:51:43.833Z,23.90
2022-10-05T22:54:11.562Z,23.80
2022-10-05T22:56:39.973Z,23.80
2022-10-05T22:59:07.914Z,23.80
2022-10-05T23:01:35.929Z,23.80
2022-10-05T23:04:05.414Z,23.80
2022-10-05T23:06:33.802Z,23.80
2022-10-05T23:09:01.745Z,23.80
2022-10-05T23:11:30.191Z,23.80
2022-10-05T23:13:58.649Z,23.80
2022-10-05T23:16:27.442Z,23.70
2022-10-05T23:18:55.634Z,23.70
2022-10-05T23:21:25.704Z,23.70
2022-10-05T23:23:53.471Z,23.70
2022-10-05T23:26:22.043Z,23.70
2022-10-05T23:28:50.271Z,23.70
2022-10-05T23:31:18.965Z,23.70
2022-10-05T23:33:47.114Z,23.60
2022-10-05T23:36:15.762Z,23.60
2022-10-05T23:38:45.667Z,23.50
2022-10-05T23:41:13.527Z,23.50
2022-10-05T23:43:41.878Z,23.50
2022-10-05T23:46:10.047Z,23.50
2022-10-05T23:48:39.382Z,23.50
2022-10-05T23:51:07.494Z,23.50
2022-10-05T23:53:35.534Z,23.40
2022-10-05T23:56:05.027Z,23.40
2022-10-05T23:58:33.522Z,23.40
